createdAt,value
2019-03-24T00:00:05.421Z,101486.97
2019-03-24T00:03:09.277Z,101487.31
2019-03-24T00:06:13.043Z,101482.55
2019-03-24T00:09:16.362Z,101483.89
2019-03-24T00:12:20.176Z,101478.13
2019-03-24T00:15:26.424Z,101483.23
2019-03-24T00:18:29.084Z,101468.09
2019-03-24T00:21:32.440Z,101473.00
2019-03-24T00:24:35.752Z,101470.97
2019-03-24T00:27:39.091Z,101458.01
2019-03-24T00:30:42.408Z,101456.83
2019-03-24T00:33:46.115Z,101453.93
2019-03-24T00:36:49.483Z,101459.38
2019-03-24T00:39:52.815Z,101455.66
2019-03-24T00:42:56.151Z,101456.67
2019-03-24T00:46:00.165Z,101451.06
2019-03-24T00:49:04.952Z,101446.95
2019-03-24T00:52:09.565Z,101455.66
2019-03-24T00:55:12.956Z,101450.55
2019-03-24T00:58:16.265Z,101441.64
2019-03-24T01:01:19.666Z,101446.23
2019-03-24T01:04:23.015Z,101438.11
2019-03-24T01:07:26.333Z,101438.77
2019-03-24T01:10:29.630Z,101434.51
2019-03-24T01:13:32.987Z,101427.50
2019-03-24T01:16:36.320Z,101433.16
2019-03-24T01:19:39.667Z,101432.11
2019-03-24T01:22:42.975Z,101430.77
2019-03-24T01:25:46.287Z,101433.64
2019-03-24T01:28:49.615Z,101426.54
2019-03-24T01:31:52.939Z,101427.56
2019-03-24T01:34:56.256Z,101426.53
2019-03-24T01:37:59.559Z,101428.06
2019-03-24T01:41:03.071Z,101433.87
2019-03-24T01:44:06.402Z,101435.91
2019-03-24T01:47:09.736Z,101431.14
2019-03-24T01:50:13.047Z,101428.40
2019-03-24T01:53:16.379Z,101419.89
2019-03-24T01:56:19.704Z,101424.66
2019-03-24T01:59:23.013Z,101426.03
2019-03-24T02:02:26.360Z,101423.97
2019-03-24T02:05:29.677Z,101413.02
2019-03-24T02:08:33.004Z,101415.73
2019-03-24T02:11:36.333Z,101416.45
2019-03-24T02:14:39.650Z,101420.56
2019-03-24T02:17:42.979Z,101412.09
2019-03-24T02:20:46.297Z,101409.16
2019-03-24T02:23:49.630Z,101406.61
2019-03-24T02:26:52.968Z,101400.82
2019-03-24T02:29:56.303Z,101400.02
2019-03-24T02:32:59.631Z,101395.72
2019-03-24T02:36:03.020Z,101393.37
2019-03-24T02:39:07.547Z,101397.11
2019-03-24T02:42:10.850Z,101399.48
2019-03-24T02:45:14.204Z,101395.40
2019-03-24T02:48:17.534Z,101395.91
2019-03-24T02:51:20.890Z,101393.55
2019-03-24T02:54:24.206Z,101398.12
2019-03-24T02:57:27.552Z,101398.45
2019-03-24T03:00:30.914Z,101400.84
2019-03-24T03:03:39.859Z,101394.89
2019-03-24T03:06:48.038Z,101390.45
2019-03-24T03:09:51.344Z,101390.98
2019-03-24T03:12:54.743Z,101394.05
2019-03-24T03:15:58.100Z,101393.53
2019-03-24T03:19:01.602Z,101390.64
2019-03-24T03:22:04.986Z,101387.73
2019-03-24T03:25:12.286Z,101388.41
2019-03-24T03:28:18.671Z,101393.53
2019-03-24T03:31:22.060Z,101385.20
2019-03-24T03:34:25.417Z,101389.27
2019-03-24T03:37:28.921Z,101379.38
2019-03-24T03:40:32.360Z,101384.15
2019-03-24T03:43:35.685Z,101380.25
2019-03-24T03:46:52.297Z,101378.69
2019-03-24T03:49:49.433Z,101379.91
2019-03-24T03:52:52.766Z,101377.50
2019-03-24T03:55:56.086Z,101371.21
2019-03-24T03:59:01.067Z,101373.12
2019-03-24T04:02:07.478Z,101364.60
2019-03-24T04:05:10.880Z,101372.60
2019-03-24T04:08:14.207Z,101371.58
2019-03-24T04:11:20.938Z,101372.78
2019-03-24T04:14:24.185Z,101373.27
2019-03-24T04:17:27.535Z,101373.97
2019-03-24T04:20:30.854Z,101367.31
2019-03-24T04:23:34.173Z,101370.55
2019-03-24T04:26:37.541Z,101373.12
2019-03-24T04:29:43.534Z,101367.84
2019-03-24T04:32:48.679Z,101369.19
2019-03-24T04:35:51.984Z,101361.89
2019-03-24T04:38:55.449Z,101358.80
2019-03-24T04:41:58.806Z,101356.28
2019-03-24T04:45:02.125Z,101353.88
2019-03-24T04:48:05.475Z,101355.06
2019-03-24T04:51:08.824Z,101353.70
2019-03-24T04:54:12.146Z,101346.72
2019-03-24T04:57:15.506Z,101342.32
2019-03-24T05:00:22.121Z,101351.16
2019-03-24T05:03:25.441Z,101349.75
2019-03-24T05:06:28.838Z,101341.25
2019-03-24T05:09:32.336Z,101344.31
2019-03-24T05:12:35.641Z,101344.98
2019-03-24T05:15:38.936Z,101347.21
2019-03-24T05:18:42.543Z,101346.88
2019-03-24T05:21:45.872Z,101341.06
2019-03-24T05:24:49.233Z,101344.95
2019-03-24T05:27:52.894Z,101336.45
2019-03-24T05:30:56.296Z,101333.42
2019-03-24T05:33:59.645Z,101341.39
2019-03-24T05:37:03.036Z,101338.86
2019-03-24T05:40:06.640Z,101340.01
2019-03-24T05:43:10.124Z,101339.66
2019-03-24T05:46:13.547Z,101340.36
2019-03-24T05:49:16.965Z,101336.78
2019-03-24T05:52:20.348Z,101334.73
2019-03-24T05:55:23.722Z,101339.99
2019-03-24T05:58:27.101Z,101340.17
2019-03-24T06:01:30.604Z,101338.67
2019-03-24T06:04:34.055Z,101332.08
2019-03-24T06:07:37.412Z,101333.39
2019-03-24T06:10:41.074Z,101333.33
2019-03-24T06:13:46.029Z,101334.20
2019-03-24T06:16:49.296Z,101334.06
2019-03-24T06:19:54.288Z,101335.20
2019-03-24T06:22:57.620Z,101338.03
2019-03-24T06:26:02.672Z,101331.78
2019-03-24T06:29:06.101Z,101339.94
2019-03-24T06:32:09.622Z,101341.19
2019-03-24T06:35:13.080Z,101346.92
2019-03-24T06:38:16.403Z,101338.06
2019-03-24T06:41:19.965Z,101326.45
2019-03-24T06:44:23.306Z,101330.20
2019-03-24T06:47:26.811Z,101336.21
2019-03-24T06:50:31.823Z,101329.37
2019-03-24T06:53:36.781Z,101335.77
2019-03-24T06:56:41.908Z,101335.28
2019-03-24T06:59:45.175Z,101331.83
2019-03-24T07:02:48.631Z,101338.13
2019-03-24T07:05:53.631Z,101337.45
2019-03-24T07:08:58.240Z,101326.62
2019-03-24T07:12:01.527Z,101327.33
2019-03-24T07:15:06.734Z,101325.62
2019-03-24T07:18:11.735Z,101333.80
2019-03-24T07:21:22.172Z,101331.43
2019-03-24T07:24:25.677Z,101333.12
2019-03-24T07:27:29.003Z,101325.75
2019-03-24T07:30:32.337Z,101329.63
2019-03-24T07:33:35.909Z,101324.59
2019-03-24T07:36:39.506Z,101322.92
2019-03-24T07:39:42.821Z,101313.97
2019-03-24T07:42:46.168Z,101309.77
2019-03-24T07:45:49.598Z,101314.87
2019-03-24T07:48:52.911Z,101314.33
2019-03-24T07:51:56.341Z,101317.73
2019-03-24T07:54:59.699Z,101316.01
2019-03-24T07:58:03.100Z,101305.83
2019-03-24T08:01:06.452Z,101306.86
2019-03-24T08:04:11.407Z,101295.53
2019-03-24T08:07:16.448Z,101299.61
2019-03-24T08:10:19.886Z,101299.09
2019-03-24T08:13:23.327Z,101294.44
2019-03-24T08:16:26.678Z,101288.14
2019-03-24T08:19:30.174Z,101289.12
2019-03-24T08:22:33.714Z,101288.14
2019-03-24T08:25:37.001Z,101287.29
2019-03-24T08:28:40.354Z,101284.59
2019-03-24T08:31:43.778Z,101281.14
2019-03-24T08:34:48.422Z,101274.19
2019-03-24T08:37:52.119Z,101277.31
2019-03-24T08:40:55.415Z,101273.23
2019-03-24T08:43:58.754Z,101271.54
2019-03-24T08:47:02.102Z,101265.58
2019-03-24T08:50:07.243Z,101274.24
2019-03-24T08:53:10.561Z,101272.91
2019-03-24T08:56:14.063Z,101267.62
2019-03-24T08:59:17.400Z,101262.19
2019-03-24T09:02:20.867Z,101255.37
2019-03-24T09:05:24.165Z,101262.52
2019-03-24T09:08:27.495Z,101255.53
2019-03-24T09:11:31.675Z,101250.45
2019-03-24T09:14:35.142Z,101249.78
2019-03-24T09:17:40.975Z,101249.28
2019-03-24T09:20:43.532Z,101247.73
2019-03-24T09:23:46.883Z,101245.68
2019-03-24T09:26:50.209Z,101244.67
2019-03-24T09:29:53.553Z,101238.88
2019-03-24T09:32:56.884Z,101237.02
2019-03-24T09:36:00.281Z,101237.18
2019-03-24T09:39:04.988Z,101225.38
2019-03-24T09:42:08.304Z,101223.11
2019-03-24T09:45:11.627Z,101219.89
2019-03-24T09:48:14.951Z,101213.85
2019-03-24T09:51:18.283Z,101211.78
2019-03-24T09:54:21.635Z,101210.38
2019-03-24T09:57:24.924Z,101198.83
2019-03-24T10:00:28.278Z,101199.34
2019-03-24T10:03:31.600Z,101193.59
2019-03-24T10:06:34.917Z,101179.98
2019-03-24T10:09:38.300Z,101186.78
2019-03-24T10:12:41.647Z,101177.75
2019-03-24T10:15:44.955Z,101170.45
2019-03-24T10:18:48.370Z,101168.55
2019-03-24T10:21:51.760Z,101162.16
2019-03-24T10:24:55.057Z,101162.44
2019-03-24T10:27:58.395Z,101149.36
2019-03-24T10:31:01.764Z,101145.75
2019-03-24T10:34:05.084Z,101150.89
2019-03-24T10:37:08.439Z,101141.23
2019-03-24T10:40:12.526Z,101136.95
2019-03-24T10:43:15.859Z,101135.77
2019-03-24T10:46:19.190Z,101140.44
2019-03-24T10:49:25.012Z,101143.53
2019-03-24T10:52:27.561Z,101133.30
2019-03-24T10:55:30.890Z,101133.64
2019-03-24T10:58:34.245Z,101126.77
2019-03-24T11:01:37.538Z,101122.56
2019-03-24T11:04:40.879Z,101121.54
2019-03-24T11:07:44.233Z,101124.04
2019-03-24T11:10:47.540Z,101123.24
2019-03-24T11:13:50.879Z,101121.50
2019-03-24T11:16:54.181Z,101117.44
2019-03-24T11:19:57.520Z,101119.84
2019-03-24T11:23:00.874Z,101120.54
2019-03-24T11:26:04.180Z,101115.69
2019-03-24T11:29:07.522Z,101114.74
2019-03-24T11:32:10.842Z,101113.25
2019-03-24T11:35:14.168Z,101115.60
2019-03-24T11:38:17.504Z,101109.11
2019-03-24T11:41:20.852Z,101103.38
2019-03-24T11:44:24.218Z,101095.93
2019-03-24T11:47:27.485Z,101100.70
2019-03-24T11:50:30.806Z,101097.50
2019-03-24T11:53:34.204Z,101095.86
2019-03-24T11:56:37.526Z,101081.27
2019-03-24T11:59:40.877Z,101081.04
2019-03-24T12:02:44.313Z,101078.06
2019-03-24T12:05:47.627Z,101074.25
2019-03-24T12:08:51.185Z,101063.70
2019-03-24T12:11:54.534Z,101059.58
2019-03-24T12:14:57.847Z,101057.82
2019-03-24T12:18:01.189Z,101046.63
2019-03-24T12:21:04.523Z,101042.34
2019-03-24T12:24:07.830Z,101034.97
2019-03-24T12:27:11.198Z,101035.95
2019-03-24T12:30:14.484Z,101028.58
2019-03-24T12:33:17.822Z,101027.88
2019-03-24T12:36:21.156Z,101013.77
2019-03-24T12:39:24.472Z,101013.71
2019-03-24T12:42:27.817Z,101010.39
2019-03-24T12:45:33.517Z,101011.97
2019-03-24T12:48:36.207Z,101009.44
2019-03-24T12:51:39.562Z,101009.80
2019-03-24T12:54:42.903Z,101008.62
2019-03-24T12:57:46.209Z,101009.19
2019-03-24T13:00:49.532Z,101006.53
2019-03-24T13:03:52.867Z,101006.37
2019-03-24T13:06:56.191Z,101008.02
2019-03-24T13:09:59.530Z,101009.68
2019-03-24T13:13:02.936Z,101001.22
2019-03-24T13:16:06.261Z,100996.81
2019-03-24T13:19:09.578Z,100996.14
2019-03-24T13:22:12.918Z,100999.67
2019-03-24T13:25:16.215Z,100997.87
2019-03-24T13:28:19.576Z,100998.78
2019-03-24T13:31:22.913Z,100998.02
2019-03-24T13:34:26.214Z,100994.67
2019-03-24T13:37:29.538Z,100987.30
2019-03-24T13:40:32.851Z,100982.33
2019-03-24T13:43:36.179Z,100976.84
2019-03-24T13:46:39.526Z,100976.66
2019-03-24T13:49:42.836Z,100974.00
2019-03-24T13:52:46.179Z,100979.58
2019-03-24T13:55:49.555Z,100971.89
2019-03-24T13:58:52.959Z,100967.26
2019-03-24T14:01:56.318Z,100964.61
2019-03-24T14:04:59.693Z,100959.33
2019-03-24T14:08:03.013Z,100946.77
2019-03-24T14:11:06.359Z,100938.34
2019-03-24T14:14:09.688Z,100936.00
2019-03-24T14:17:13.333Z,100924.16
2019-03-24T14:20:16.649Z,100922.45
2019-03-24T14:23:19.991Z,100908.55
2019-03-24T14:26:23.296Z,100888.70
2019-03-24T14:29:27.234Z,100881.69
2019-03-24T14:32:30.675Z,100866.11
2019-03-24T14:35:33.994Z,100876.52
2019-03-24T14:38:37.310Z,100880.83
2019-03-24T14:41:40.667Z,100884.31
2019-03-24T14:44:43.997Z,100884.11
2019-03-24T14:47:47.312Z,100880.11
2019-03-24T14:50:54.860Z,100884.42
2019-03-24T14:53:55.686Z,100883.06
2019-03-24T14:56:59.023Z,100884.11
2019-03-24T15:00:02.732Z,100876.95
2019-03-24T15:03:06.064Z,100877.73
2019-03-24T15:06:09.407Z,100869.83
2019-03-24T15:09:12.746Z,100866.42
2019-03-24T15:12:16.073Z,100873.88
2019-03-24T15:15:19.474Z,100872.11
2019-03-24T15:18:22.797Z,100874.20
2019-03-24T15:21:26.130Z,100882.70
2019-03-24T15:24:29.479Z,100877.70
2019-03-24T15:27:32.783Z,100876.88
2019-03-24T15:30:36.143Z,100878.13
2019-03-24T15:33:39.492Z,100885.59
2019-03-24T15:36:42.815Z,100884.79
2019-03-24T15:39:46.134Z,100884.28
2019-03-24T15:42:49.459Z,100886.19
2019-03-24T15:45:52.816Z,100884.63
2019-03-24T15:48:56.178Z,100872.37
2019-03-24T15:51:59.500Z,100878.78
2019-03-24T15:55:03.316Z,100881.51
2019-03-24T15:58:06.611Z,100882.22
2019-03-24T16:01:09.945Z,100877.70
2019-03-24T16:04:13.268Z,100876.58
2019-03-24T16:07:16.610Z,100865.71
2019-03-24T16:10:19.944Z,100867.84
2019-03-24T16:13:23.264Z,100864.51
2019-03-24T16:16:26.746Z,100863.48
2019-03-24T16:19:30.105Z,100861.81
2019-03-24T16:22:33.398Z,100850.51
2019-03-24T16:25:36.764Z,100861.44
2019-03-24T16:28:40.098Z,100857.66
2019-03-24T16:31:43.439Z,100857.46
2019-03-24T16:34:46.805Z,100850.03
2019-03-24T16:37:50.094Z,100846.32
2019-03-24T16:40:53.449Z,100846.05
2019-03-24T16:43:56.819Z,100840.02
2019-03-24T16:47:00.169Z,100841.59
2019-03-24T16:50:05.137Z,100829.73
2019-03-24T16:53:08.455Z,100820.75
2019-03-24T16:56:11.781Z,100819.86
2019-03-24T16:59:15.157Z,100821.69
2019-03-24T17:02:18.479Z,100817.95
2019-03-24T17:05:21.832Z,100817.30
2019-03-24T17:08:25.307Z,100818.78
2019-03-24T17:11:28.620Z,100822.67
2019-03-24T17:14:31.972Z,100820.91
2019-03-24T17:17:35.301Z,100808.88
2019-03-24T17:20:38.701Z,100812.95
2019-03-24T17:23:42.041Z,100805.12
2019-03-24T17:26:45.367Z,100798.41
2019-03-24T17:29:48.698Z,100799.59
2019-03-24T17:32:52.035Z,100802.63
2019-03-24T17:35:55.431Z,100801.31
2019-03-24T17:38:58.737Z,100799.98
2019-03-24T17:42:02.142Z,100800.31
2019-03-24T17:45:10.260Z,100788.69
2019-03-24T17:48:13.577Z,100789.42
2019-03-24T17:51:16.913Z,100793.47
2019-03-24T17:54:20.327Z,100786.13
2019-03-24T17:57:23.649Z,100794.22
2019-03-24T18:00:43.166Z,100787.51
2019-03-24T18:03:46.490Z,100791.52
2019-03-24T18:06:49.812Z,100792.23
2019-03-24T18:09:53.132Z,100791.58
2019-03-24T18:12:56.468Z,100791.95
2019-03-24T18:15:59.811Z,100795.76
2019-03-24T18:19:03.190Z,100792.15
2019-03-24T18:22:11.550Z,100782.52
2019-03-24T18:25:11.569Z,100784.62
2019-03-24T18:28:14.928Z,100782.68
2019-03-24T18:31:18.227Z,100780.53
2019-03-24T18:34:21.575Z,100786.20
2019-03-24T18:37:24.917Z,100784.27
2019-03-24T18:40:28.244Z,100793.02
2019-03-24T18:43:31.570Z,100796.09
2019-03-24T18:46:34.898Z,100794.56
2019-03-24T18:49:38.270Z,100796.62
2019-03-24T18:52:41.661Z,100788.73
2019-03-24T18:55:44.983Z,100785.87
2019-03-24T18:58:48.358Z,100780.41
2019-03-24T19:01:51.645Z,100773.21
2019-03-24T19:04:55.045Z,100775.98
2019-03-24T19:07:58.389Z,100767.89
2019-03-24T19:11:01.733Z,100769.06
2019-03-24T19:14:05.246Z,100771.66
2019-03-24T19:17:10.130Z,100778.08
2019-03-24T19:20:14.591Z,100772.66
2019-03-24T19:23:17.907Z,100782.34
2019-03-24T19:26:21.241Z,100779.97
2019-03-24T19:29:24.579Z,100775.55
2019-03-24T19:32:28.499Z,100777.25
2019-03-24T19:35:31.992Z,100773.84
2019-03-24T19:38:35.991Z,100778.66
2019-03-24T19:41:39.338Z,100767.57
2019-03-24T19:44:43.180Z,100762.25
2019-03-24T19:47:46.506Z,100763.14
2019-03-24T19:50:49.866Z,100760.38
2019-03-24T19:53:53.955Z,100758.89
2019-03-24T19:56:58.080Z,100758.36
2019-03-24T20:00:01.593Z,100753.89
2019-03-24T20:03:05.101Z,100752.49
2019-03-24T20:06:09.105Z,100749.11
2019-03-24T20:09:12.683Z,100748.50
2019-03-24T20:12:16.029Z,100736.98
2019-03-24T20:15:19.565Z,100741.71
2019-03-24T20:18:23.387Z,100728.44
2019-03-24T20:21:32.125Z,100713.50
2019-03-24T20:24:35.678Z,100711.75
2019-03-24T20:27:39.013Z,100710.08
2019-03-24T20:30:42.356Z,100719.33
2019-03-24T20:33:45.712Z,100718.63
2019-03-24T20:36:49.064Z,100723.36
2019-03-24T20:39:52.568Z,100732.16
2019-03-24T20:42:55.902Z,100729.53
2019-03-24T20:45:59.534Z,100727.65
2019-03-24T20:49:02.855Z,100726.73
2019-03-24T20:52:06.236Z,100726.99
2019-03-24T20:55:09.666Z,100718.01
2019-03-24T20:58:13.005Z,100717.17
2019-03-24T21:01:18.732Z,100715.05
2019-03-24T21:04:21.423Z,100714.35
2019-03-24T21:07:24.832Z,100710.48
2019-03-24T21:10:29.843Z,100714.09
2019-03-24T21:13:33.233Z,100710.36
2019-03-24T21:16:36.570Z,100704.44
2019-03-24T21:19:39.907Z,100702.63
2019-03-24T21:22:43.227Z,100698.73
2019-03-24T21:25:46.568Z,100689.95
2019-03-24T21:28:51.931Z,100685.56
2019-03-24T21:31:55.328Z,100680.72
2019-03-24T21:34:58.721Z,100678.84
2019-03-24T21:38:02.039Z,100676.67
2019-03-24T21:41:05.397Z,100678.72
2019-03-24T21:44:08.782Z,100674.83
2019-03-24T21:47:12.123Z,100668.72
2019-03-24T21:50:15.442Z,100670.42
2019-03-24T21:53:18.757Z,100667.03
2019-03-24T21:56:22.163Z,100662.27
2019-03-24T21:59:25.452Z,100662.79
2019-03-24T22:02:28.958Z,100665.48
2019-03-24T22:05:32.293Z,100670.40
2019-03-24T22:08:35.618Z,100670.39
2019-03-24T22:11:38.969Z,100666.99
2019-03-24T22:14:42.307Z,100659.56
2019-03-24T22:17:45.624Z,100658.20
2019-03-24T22:20:49.389Z,100652.27
2019-03-24T22:23:52.809Z,100651.75
2019-03-24T22:26:56.152Z,100651.13
2019-03-24T22:29:59.455Z,100644.33
2019-03-24T22:33:02.780Z,100639.07
2019-03-24T22:36:06.110Z,100644.84
2019-03-24T22:39:09.462Z,100637.37
2019-03-24T22:42:12.862Z,100629.61
2019-03-24T22:45:16.235Z,100627.73
2019-03-24T22:48:19.560Z,100620.63
2019-03-24T22:51:22.900Z,100618.26
2019-03-24T22:54:29.100Z,100607.91
2019-03-24T22:57:32.728Z,100618.25
2019-03-24T23:00:51.087Z,100612.48
2019-03-24T23:03:56.059Z,100612.36
2019-03-24T23:06:59.394Z,100605.74
2019-03-24T23:10:02.756Z,100611.84
2019-03-24T23:13:06.094Z,100618.45
2019-03-24T23:16:09.484Z,100613.36
2019-03-24T23:19:12.815Z,100605.06
2019-03-24T23:22:16.118Z,100596.77
2019-03-24T23:25:19.453Z,100589.16
2019-03-24T23:28:22.776Z,100590.99
2019-03-24T23:31:26.083Z,100583.58
2019-03-24T23:34:29.476Z,100578.14
2019-03-24T23:37:32.818Z,100569.83
2019-03-24T23:40:36.125Z,100569.86
2019-03-24T23:43:39.429Z,100570.55
2019-03-24T23:46:42.823Z,100563.77
2019-03-24T23:49:46.137Z,100560.73
2019-03-24T23:52:49.446Z,100556.98
2019-03-24T23:55:52.819Z,100554.97
2019-03-24T23:58:56.143Z,100553.27
